Isle Of Springs, Maine
Current Conditions -  °F | °C
As of 11:53 AM on Sunday 21 Dec 2014 (Local Time) from KIWI Reporting Station
Overcast Overcast  
Wind Chill: 30°   Ceiling: 4100
Heat Index: 30°   Visibility: 10mi
Dew Point: 22°   Wind: 3mph
Humidity: 72%   Direction: NA
Pressure: 30.35"   Gusts: NA
Location:  43.86°N, 69.68°W
Report Text: KIWI 211653Z AUTO VRB03KT 10SM OVC041 M01/M06 A3035 RMK AO2 SLP278 T10111056
Loading
Personal Weather Stations






























Interactive Weather Map New forecast layout! Learn more

10-Day Weather Forecast

Advertisements
Track Severe Weather on mobile